< Typhoon 196507 1965 Season Typhoon 196509 >
Typhoon 196508 (CARLA)
General InformationTrack Information on Google Maps || Disaster Info.ResourceGoogle EarthGE AnimationAtom FeedGeoJSON
Detalied Best Track (Time Zone = UTC)
Year Month Day Hour Lat. Long. Pressure (hPa) Wind (kt) Class Image Chart
1965 5 30 06 17.0 113.0 1004 0 2 -- Chart
1965 5 30 12 17.4 114.0 1002 0 2 -- Chart
1965 5 30 18 17.7 115.0 1004 0 2 -- Chart
1965 5 31 00 17.9 116.1 1004 0 2 -- Chart
1965 5 31 06 18.2 117.0 1004 0 2 -- Chart
1965 5 31 12 18.9 117.8 1004 0 2 -- Chart
1965 5 31 18 19.2 118.4 1004 0 2 -- Chart
1965 6 1 00 19.7 119.5 1002 0 2 -- Chart
1965 6 1 06 20.1 121.0 1000 0 2 -- Chart
1965 6 1 12 21.1 122.6 995 0 2 -- Chart
1965 6 1 18 22.2 124.3 995 0 9 -- Chart
1965 6 2 00 23.5 125.6 995 0 9 -- Chart
1965 6 2 06 24.0 126.0 995 0 9 -- Chart
1965 6 2 12 26.5 127.3 996 0 9 -- Chart
1965 6 2 18 27.0 127.8 996 0 9 -- Chart
1965 6 3 00 28.5 128.5 1000 0 9 -- Chart
1965 6 3 06 29.5 130.2 1002 0 6 -- Chart
1965 6 3 12 31.5 134.0 1000 0 6 -- Chart
1965 6 3 18 33.0 137.0 996 0 6 -- Chart
1965 6 4 00 35.0 141.0 994 0 6 -- Chart
1965 6 4 06 36.5 144.5 988 0 6 -- Chart
1965 6 4 12 38.0 148.0 990 0 6 -- Chart
1965 6 4 18 38.4 150.0 990 0 6 -- Chart
1965 6 5 00 38.9 151.9 990 0 6 -- Chart
1965 6 5 06 38.9 156.7 994 0 6 -- Chart
1965 6 5 12 39.0 159.9 998 0 6 -- Chart
1965 6 5 18 39.0 165.0 998 0 6 -- Chart
1965 6 6 00 39.9 171.0 1006 0 6 -- Chart
1965 6 6 06 40.0 175.2 1008 0 6 -- Chart
1965 6 6 12 40.0 178.1 1012 0 6 -- Chart
Japan Meteorological Agency Best Track Data | Correction Date : 1989-06-01
< Typhoon 196507 1965 Season Typhoon 196509 >

Help